sensor_id;sensor_type;location;lat;lon;timestamp;P1;durP1;ratioP1;P2;durP2;ratioP2
823;SDS011;373;49.342;8.146;2023-12-14T00:01:13;3.17;;;1.90;;
823;SDS011;373;49.342;8.146;2023-12-14T00:03:39;2.85;;;2.00;;
823;SDS011;373;49.342;8.146;2023-12-14T00:06:07;3.30;;;2.17;;
823;SDS011;373;49.342;8.146;2023-12-14T00:08:34;2.63;;;1.92;;
823;SDS011;373;49.342;8.146;2023-12-14T00:11:03;2.92;;;1.83;;
823;SDS011;373;49.342;8.146;2023-12-14T00:13:30;2.80;;;2.22;;
823;SDS011;373;49.342;8.146;2023-12-14T00:15:57;3.58;;;2.40;;
823;SDS011;373;49.342;8.146;2023-12-14T00:18:26;3.05;;;2.75;;
823;SDS011;373;49.342;8.146;2023-12-14T00:20:53;2.90;;;2.60;;
823;SDS011;373;49.342;8.146;2023-12-14T00:23:21;3.88;;;2.75;;
823;SDS011;373;49.342;8.146;2023-12-14T00:25:48;3.63;;;2.88;;
823;SDS011;373;49.342;8.146;2023-12-14T00:28:15;5.07;;;2.92;;
823;SDS011;373;49.342;8.146;2023-12-14T00:30:42;3.20;;;2.67;;
823;SDS011;373;49.342;8.146;2023-12-14T00:33:10;2.97;;;2.70;;
823;SDS011;373;49.342;8.146;2023-12-14T00:35:38;3.45;;;2.83;;
823;SDS011;373;49.342;8.146;2023-12-14T00:38:05;3.22;;;2.92;;
823;SDS011;373;49.342;8.146;2023-12-14T00:40:32;3.20;;;2.88;;
823;SDS011;373;49.342;8.146;2023-12-14T00:42:59;2.55;;;2.35;;
823;SDS011;373;49.342;8.146;2023-12-14T00:45:26;3.75;;;3.00;;
823;SDS011;373;49.342;8.146;2023-12-14T00:47:53;4.47;;;3.00;;
823;SDS011;373;49.342;8.146;2023-12-14T00:50:20;3.90;;;2.63;;
823;SDS011;373;49.342;8.146;2023-12-14T00:52:49;5.78;;;3.17;;
823;SDS011;373;49.342;8.146;2023-12-14T00:55:16;4.32;;;2.95;;
823;SDS011;373;49.342;8.146;2023-12-14T00:57:43;4.28;;;3.17;;
823;SDS011;373;49.342;8.146;2023-12-14T01:00:10;2.88;;;2.67;;
823;SDS011;373;49.342;8.146;2023-12-14T01:02:38;4.18;;;3.17;;
823;SDS011;373;49.342;8.146;2023-12-14T01:05:05;3.17;;;2.58;;
823;SDS011;373;49.342;8.146;2023-12-14T01:07:32;2.67;;;2.20;;
823;SDS011;373;49.342;8.146;2023-12-14T01:10:01;2.97;;;2.42;;
823;SDS011;373;49.342;8.146;2023-12-14T01:12:28;2.55;;;2.28;;
823;SDS011;373;49.342;8.146;2023-12-14T01:14:55;2.75;;;2.50;;
823;SDS011;373;49.342;8.146;2023-12-14T01:17:23;2.85;;;2.30;;
823;SDS011;373;49.342;8.146;2023-12-14T01:19:50;2.15;;;1.92;;
823;SDS011;373;49.342;8.146;2023-12-14T01:22:17;2.30;;;1.80;;
823;SDS011;373;49.342;8.146;2023-12-14T01:24:44;2.15;;;1.92;;
823;SDS011;373;49.342;8.146;2023-12-14T01:27:12;2.70;;;2.35;;
823;SDS011;373;49.342;8.146;2023-12-14T01:29:39;3.00;;;2.05;;
823;SDS011;373;49.342;8.146;2023-12-14T01:32:06;2.20;;;2.00;;
823;SDS011;373;49.342;8.146;2023-12-14T01:34:34;1.98;;;1.88;;
823;SDS011;373;49.342;8.146;2023-12-14T01:37:01;3.20;;;1.92;;
823;SDS011;373;49.342;8.146;2023-12-14T01:39:28;3.17;;;1.98;;
823;SDS011;373;49.342;8.146;2023-12-14T01:41:55;2.25;;;1.90;;
823;SDS011;373;49.342;8.146;2023-12-14T01:44:23;3.38;;;3.05;;
823;SDS011;373;49.342;8.146;2023-12-14T01:46:50;3.42;;;2.53;;
823;SDS011;373;49.342;8.146;2023-12-14T01:49:17;3.72;;;3.08;;
823;SDS011;373;49.342;8.146;2023-12-14T01:51:44;2.90;;;2.60;;
823;SDS011;373;49.342;8.146;2023-12-14T01:54:12;4.18;;;2.83;;
823;SDS011;373;49.342;8.146;2023-12-14T01:56:39;3.33;;;2.65;;
823;SDS011;373;49.342;8.146;2023-12-14T01:59:06;2.70;;;2.50;;
823;SDS011;373;49.342;8.146;2023-12-14T02:01:37;2.83;;;2.50;;
823;SDS011;373;49.342;8.146;2023-12-14T02:04:07;2.78;;;2.40;;
823;SDS011;373;49.342;8.146;2023-12-14T02:06:35;3.67;;;2.63;;
823;SDS011;373;49.342;8.146;2023-12-14T02:09:03;2.83;;;2.50;;
823;SDS011;373;49.342;8.146;2023-12-14T02:11:30;3.63;;;3.30;;
823;SDS011;373;49.342;8.146;2023-12-14T02:14:02;4.25;;;3.20;;
823;SDS011;373;49.342;8.146;2023-12-14T02:16:30;2.92;;;2.60;;
823;SDS011;373;49.342;8.146;2023-12-14T02:18:59;2.88;;;2.65;;
823;SDS011;373;49.342;8.146;2023-12-14T02:21:27;3.58;;;3.20;;
823;SDS011;373;49.342;8.146;2023-12-14T02:23:56;3.40;;;3.10;;
823;SDS011;373;49.342;8.146;2023-12-14T02:26:23;4.50;;;3.28;;
823;SDS011;373;49.342;8.146;2023-12-14T02:28:50;3.58;;;3.20;;
823;SDS011;373;49.342;8.146;2023-12-14T02:31:19;5.13;;;3.63;;
823;SDS011;373;49.342;8.146;2023-12-14T02:33:46;4.13;;;3.05;;
823;SDS011;373;49.342;8.146;2023-12-14T02:36:14;4.15;;;3.47;;
823;SDS011;373;49.342;8.146;2023-12-14T02:38:42;3.50;;;3.20;;
823;SDS011;373;49.342;8.146;2023-12-14T02:41:11;4.38;;;3.20;;
823;SDS011;373;49.342;8.146;2023-12-14T02:43:38;4.50;;;4.07;;
823;SDS011;373;49.342;8.146;2023-12-14T02:46:06;4.85;;;3.47;;
823;SDS011;373;49.342;8.146;2023-12-14T02:48:34;4.55;;;3.20;;
823;SDS011;373;49.342;8.146;2023-12-14T02:51:01;5.03;;;3.60;;
823;SDS011;373;49.342;8.146;2023-12-14T02:53:28;3.92;;;3.47;;
823;SDS011;373;49.342;8.146;2023-12-14T02:55:55;3.83;;;3.40;;
823;SDS011;373;49.342;8.146;2023-12-14T02:58:24;3.63;;;3.05;;
823;SDS011;373;49.342;8.146;2023-12-14T03:00:51;3.22;;;2.92;;
823;SDS011;373;49.342;8.146;2023-12-14T03:03:17;5.63;;;3.53;;
823;SDS011;373;49.342;8.146;2023-12-14T03:05:44;4.10;;;3.65;;
823;SDS011;373;49.342;8.146;2023-12-14T03:08:11;3.72;;;3.40;;
823;SDS011;373;49.342;8.146;2023-12-14T03:10:38;5.40;;;3.83;;
823;SDS011;373;49.342;8.146;2023-12-14T03:13:05;4.15;;;3.70;;
823;SDS011;373;49.342;8.146;2023-12-14T03:15:34;3.53;;;3.22;;
823;SDS011;373;49.342;8.146;2023-12-14T03:18:01;3.88;;;3.53;;
823;SDS011;373;49.342;8.146;2023-12-14T03:20:28;3.92;;;3.30;;
823;SDS011;373;49.342;8.146;2023-12-14T03:22:55;4.45;;;3.50;;
823;SDS011;373;49.342;8.146;2023-12-14T03:25:23;3.63;;;3.20;;
823;SDS011;373;49.342;8.146;2023-12-14T03:27:50;4.70;;;4.13;;
823;SDS011;373;49.342;8.146;2023-12-14T03:30:16;4.43;;;4.03;;
823;SDS011;373;49.342;8.146;2023-12-14T03:32:44;4.72;;;3.97;;
823;SDS011;373;49.342;8.146;2023-12-14T03:35:11;4.55;;;3.53;;
823;SDS011;373;49.342;8.146;2023-12-14T03:37:38;4.85;;;3.70;;
823;SDS011;373;49.342;8.146;2023-12-14T03:40:06;4.05;;;3.72;;
823;SDS011;373;49.342;8.146;2023-12-14T03:42:33;5.10;;;4.60;;
823;SDS011;373;49.342;8.146;2023-12-14T03:45:01;5.85;;;4.13;;
823;SDS011;373;49.342;8.146;2023-12-14T03:47:28;6.72;;;4.03;;
823;SDS011;373;49.342;8.146;2023-12-14T03:49:56;4.00;;;3.70;;
823;SDS011;373;49.342;8.146;2023-12-14T03:52:23;4.82;;;4.28;;
823;SDS011;373;49.342;8.146;2023-12-14T03:54:51;4.53;;;4.18;;
823;SDS011;373;49.342;8.146;2023-12-14T03:57:18;5.15;;;4.57;;
823;SDS011;373;49.342;8.146;2023-12-14T03:59:45;6.20;;;4.43;;
823;SDS011;373;49.342;8.146;2023-12-14T04:02:12;5.70;;;4.97;;
823;SDS011;373;49.342;8.146;2023-12-14T04:04:39;5.80;;;5.30;;
823;SDS011;373;49.342;8.146;2023-12-14T04:07:08;6.05;;;5.43;;
823;SDS011;373;49.342;8.146;2023-12-14T04:09:35;5.88;;;5.28;;
823;SDS011;373;49.342;8.146;2023-12-14T04:12:02;8.55;;;5.65;;
823;SDS011;373;49.342;8.146;2023-12-14T04:14:30;5.60;;;5.03;;
823;SDS011;373;49.342;8.146;2023-12-14T04:16:57;7.85;;;5.90;;
823;SDS011;373;49.342;8.146;2023-12-14T04:19:24;5.78;;;5.28;;
823;SDS011;373;49.342;8.146;2023-12-14T04:21:51;6.95;;;5.28;;
823;SDS011;373;49.342;8.146;2023-12-14T04:24:19;6.50;;;5.57;;
823;SDS011;373;49.342;8.146;2023-12-14T04:26:47;5.72;;;5.20;;
823;SDS011;373;49.342;8.146;2023-12-14T04:29:14;7.75;;;5.85;;
823;SDS011;373;49.342;8.146;2023-12-14T04:31:41;7.70;;;5.47;;
823;SDS011;373;49.342;8.146;2023-12-14T04:34:08;5.95;;;5.25;;
823;SDS011;373;49.342;8.146;2023-12-14T04:36:40;6.47;;;5.35;;
823;SDS011;373;49.342;8.146;2023-12-14T04:39:07;6.28;;;5.10;;
823;SDS011;373;49.342;8.146;2023-12-14T04:41:36;6.10;;;5.43;;
823;SDS011;373;49.342;8.146;2023-12-14T04:44:03;4.95;;;4.43;;
823;SDS011;373;49.342;8.146;2023-12-14T04:46:30;6.80;;;5.40;;
823;SDS011;373;49.342;8.146;2023-12-14T04:48:57;5.55;;;5.05;;
823;SDS011;373;49.342;8.146;2023-12-14T04:51:24;5.88;;;5.00;;
823;SDS011;373;49.342;8.146;2023-12-14T04:53:52;5.18;;;4.70;;
823;SDS011;373;49.342;8.146;2023-12-14T04:56:19;6.13;;;5.15;;
823;SDS011;373;49.342;8.146;2023-12-14T04:58:47;5.20;;;4.70;;
823;SDS011;373;49.342;8.146;2023-12-14T05:01:14;5.93;;;4.43;;
823;SDS011;373;49.342;8.146;2023-12-14T05:03:41;4.50;;;4.10;;
823;SDS011;373;49.342;8.146;2023-12-14T05:06:09;6.82;;;5.28;;
823;SDS011;373;49.342;8.146;2023-12-14T05:08:36;6.53;;;5.68;;
823;SDS011;373;49.342;8.146;2023-12-14T05:11:03;8.07;;;5.80;;
823;SDS011;373;49.342;8.146;2023-12-14T05:13:30;6.07;;;5.47;;
823;SDS011;373;49.342;8.146;2023-12-14T05:15:59;5.40;;;4.00;;
823;SDS011;373;49.342;8.146;2023-12-14T05:18:26;5.53;;;5.03;;
823;SDS011;373;49.342;8.146;2023-12-14T05:20:55;6.78;;;4.47;;
823;SDS011;373;49.342;8.146;2023-12-14T05:23:22;5.38;;;4.72;;
823;SDS011;373;49.342;8.146;2023-12-14T05:25:50;6.43;;;5.25;;
823;SDS011;373;49.342;8.146;2023-12-14T05:28:17;5.85;;;4.78;;
823;SDS011;373;49.342;8.146;2023-12-14T05:30:44;4.80;;;4.35;;
823;SDS011;373;49.342;8.146;2023-12-14T05:33:12;5.45;;;4.95;;
823;SDS011;373;49.342;8.146;2023-12-14T05:35:40;8.20;;;5.07;;
823;SDS011;373;49.342;8.146;2023-12-14T05:38:07;5.35;;;4.85;;
823;SDS011;373;49.342;8.146;2023-12-14T05:40:34;8.38;;;5.82;;
823;SDS011;373;49.342;8.146;2023-12-14T05:43:02;5.63;;;5.07;;
823;SDS011;373;49.342;8.146;2023-12-14T05:45:29;8.00;;;5.60;;
823;SDS011;373;49.342;8.146;2023-12-14T05:47:56;6.28;;;5.40;;
823;SDS011;373;49.342;8.146;2023-12-14T05:50:25;5.43;;;4.95;;
823;SDS011;373;49.342;8.146;2023-12-14T05:52:52;5.57;;;5.00;;
823;SDS011;373;49.342;8.146;2023-12-14T05:55:19;6.20;;;5.60;;
823;SDS011;373;49.342;8.146;2023-12-14T05:57:47;4.95;;;4.50;;
823;SDS011;373;49.342;8.146;2023-12-14T06:00:14;6.38;;;5.35;;
823;SDS011;373;49.342;8.146;2023-12-14T06:02:42;6.20;;;4.50;;
823;SDS011;373;49.342;8.146;2023-12-14T06:05:09;7.28;;;4.88;;
823;SDS011;373;49.342;8.146;2023-12-14T06:07:37;5.25;;;4.75;;
823;SDS011;373;49.342;8.146;2023-12-14T06:10:05;6.30;;;5.25;;
823;SDS011;373;49.342;8.146;2023-12-14T06:12:33;5.65;;;5.05;;
823;SDS011;373;49.342;8.146;2023-12-14T06:15:00;6.15;;;5.55;;
823;SDS011;373;49.342;8.146;2023-12-14T06:17:27;5.70;;;5.07;;
823;SDS011;373;49.342;8.146;2023-12-14T06:19:55;7.25;;;5.25;;
823;SDS011;373;49.342;8.146;2023-12-14T06:22:22;5.60;;;4.80;;
823;SDS011;373;49.342;8.146;2023-12-14T06:24:51;7.22;;;6.15;;
823;SDS011;373;49.342;8.146;2023-12-14T06:27:18;5.90;;;5.18;;
823;SDS011;373;49.342;8.146;2023-12-14T06:29:48;6.20;;;5.53;;
823;SDS011;373;49.342;8.146;2023-12-14T06:32:15;6.10;;;5.30;;
823;SDS011;373;49.342;8.146;2023-12-14T06:34:42;8.95;;;5.82;;
823;SDS011;373;49.342;8.146;2023-12-14T06:37:09;8.07;;;6.22;;
823;SDS011;373;49.342;8.146;2023-12-14T06:39:36;6.47;;;5.72;;
823;SDS011;373;49.342;8.146;2023-12-14T06:42:05;7.70;;;5.88;;
823;SDS011;373;49.342;8.146;2023-12-14T06:44:32;6.20;;;5.47;;
823;SDS011;373;49.342;8.146;2023-12-14T06:47:00;6.47;;;5.78;;
823;SDS011;373;49.342;8.146;2023-12-14T06:49:27;7.20;;;5.57;;
823;SDS011;373;49.342;8.146;2023-12-14T06:51:54;6.07;;;5.47;;
823;SDS011;373;49.342;8.146;2023-12-14T06:54:21;6.47;;;5.65;;
823;SDS011;373;49.342;8.146;2023-12-14T06:56:48;5.75;;;5.05;;
823;SDS011;373;49.342;8.146;2023-12-14T06:59:17;7.30;;;5.32;;
823;SDS011;373;49.342;8.146;2023-12-14T07:01:44;5.85;;;5.28;;
823;SDS011;373;49.342;8.146;2023-12-14T07:04:11;6.47;;;5.00;;
823;SDS011;373;49.342;8.146;2023-12-14T07:06:39;6.78;;;5.25;;
823;SDS011;373;49.342;8.146;2023-12-14T07:09:06;5.82;;;5.03;;
823;SDS011;373;49.342;8.146;2023-12-14T07:11:33;7.07;;;5.55;;
823;SDS011;373;49.342;8.146;2023-12-14T07:14:00;7.25;;;5.00;;
823;SDS011;373;49.342;8.146;2023-12-14T07:16:29;6.65;;;5.57;;
823;SDS011;373;49.342;8.146;2023-12-14T07:18:56;5.43;;;4.63;;
823;SDS011;373;49.342;8.146;2023-12-14T07:21:23;5.32;;;4.72;;
823;SDS011;373;49.342;8.146;2023-12-14T07:23:50;5.55;;;5.05;;
823;SDS011;373;49.342;8.146;2023-12-14T07:26:17;5.38;;;4.63;;
823;SDS011;373;49.342;8.146;2023-12-14T07:28:43;5.40;;;4.75;;
823;SDS011;373;49.342;8.146;2023-12-14T07:31:10;5.63;;;4.88;;
823;SDS011;373;49.342;8.146;2023-12-14T07:33:39;6.20;;;4.60;;
823;SDS011;373;49.342;8.146;2023-12-14T08:41:48;5.45;;;3.83;;
823;SDS011;373;49.342;8.146;2023-12-14T08:44:16;4.88;;;4.22;;
823;SDS011;373;49.342;8.146;2023-12-14T08:46:44;4.00;;;3.60;;
823;SDS011;373;49.342;8.146;2023-12-14T08:49:12;5.20;;;4.70;;
823;SDS011;373;49.342;8.146;2023-12-14T08:51:40;4.35;;;3.95;;
823;SDS011;373;49.342;8.146;2023-12-14T08:54:08;6.00;;;5.35;;
823;SDS011;373;49.342;8.146;2023-12-14T08:56:35;6.20;;;4.45;;
823;SDS011;373;49.342;8.146;2023-12-14T08:59:03;5.00;;;4.15;;
823;SDS011;373;49.342;8.146;2023-12-14T09:01:30;6.32;;;4.68;;
823;SDS011;373;49.342;8.146;2023-12-14T09:03:57;5.65;;;4.70;;
823;SDS011;373;49.342;8.146;2023-12-14T09:06:25;5.68;;;4.10;;
823;SDS011;373;49.342;8.146;2023-12-14T09:08:52;5.32;;;4.88;;
823;SDS011;373;49.342;8.146;2023-12-14T09:11:19;5.30;;;4.80;;
823;SDS011;373;49.342;8.146;2023-12-14T09:13:46;5.18;;;4.68;;
823;SDS011;373;49.342;8.146;2023-12-14T09:16:14;6.13;;;4.82;;
823;SDS011;373;49.342;8.146;2023-12-14T09:18:41;5.43;;;4.25;;
823;SDS011;373;49.342;8.146;2023-12-14T09:21:08;4.95;;;4.07;;
823;SDS011;373;49.342;8.146;2023-12-14T09:23:35;6.10;;;4.60;;
823;SDS011;373;49.342;8.146;2023-12-14T09:26:02;5.00;;;3.70;;
823;SDS011;373;49.342;8.146;2023-12-14T09:28:29;4.65;;;3.72;;
823;SDS011;373;49.342;8.146;2023-12-14T09:30:56;6.53;;;4.57;;
823;SDS011;373;49.342;8.146;2023-12-14T09:33:25;7.78;;;4.70;;
823;SDS011;373;49.342;8.146;2023-12-14T09:35:52;6.95;;;5.03;;
823;SDS011;373;49.342;8.146;2023-12-14T09:38:19;7.07;;;5.35;;
823;SDS011;373;49.342;8.146;2023-12-14T09:40:46;6.75;;;4.97;;
823;SDS011;373;49.342;8.146;2023-12-14T09:43:13;5.70;;;5.10;;
823;SDS011;373;49.342;8.146;2023-12-14T09:45:40;8.00;;;5.70;;
823;SDS011;373;49.342;8.146;2023-12-14T09:48:10;7.28;;;5.55;;
823;SDS011;373;49.342;8.146;2023-12-14T09:50:40;6.40;;;5.50;;
823;SDS011;373;49.342;8.146;2023-12-14T09:53:08;6.50;;;5.90;;
823;SDS011;373;49.342;8.146;2023-12-14T09:55:35;6.55;;;5.90;;
823;SDS011;373;49.342;8.146;2023-12-14T09:58:02;6.93;;;5.50;;
823;SDS011;373;49.342;8.146;2023-12-14T10:00:33;6.85;;;5.85;;
823;SDS011;373;49.342;8.146;2023-12-14T10:05:52;8.60;;;7.05;;
823;SDS011;373;49.342;8.146;2023-12-14T10:08:20;6.72;;;6.03;;
823;SDS011;373;49.342;8.146;2023-12-14T10:10:48;7.57;;;5.75;;
823;SDS011;373;49.342;8.146;2023-12-14T10:13:18;9.65;;;7.05;;
823;SDS011;373;49.342;8.146;2023-12-14T10:15:45;7.28;;;5.60;;
823;SDS011;373;49.342;8.146;2023-12-14T10:18:16;7.75;;;6.60;;
823;SDS011;373;49.342;8.146;2023-12-14T10:20:48;6.32;;;5.72;;
823;SDS011;373;49.342;8.146;2023-12-14T10:23:16;7.97;;;5.35;;
823;SDS011;373;49.342;8.146;2023-12-14T10:25:44;6.50;;;5.47;;
823;SDS011;373;49.342;8.146;2023-12-14T10:28:11;7.20;;;5.35;;
823;SDS011;373;49.342;8.146;2023-12-14T10:30:39;6.25;;;4.63;;
823;SDS011;373;49.342;8.146;2023-12-14T10:33:06;5.78;;;4.13;;
823;SDS011;373;49.342;8.146;2023-12-14T10:35:34;5.85;;;4.95;;
823;SDS011;373;49.342;8.146;2023-12-14T10:38:02;6.00;;;5.05;;
823;SDS011;373;49.342;8.146;2023-12-14T10:40:32;5.65;;;4.95;;
823;SDS011;373;49.342;8.146;2023-12-14T10:42:59;5.43;;;4.93;;
823;SDS011;373;49.342;8.146;2023-12-14T10:45:28;5.07;;;4.57;;
823;SDS011;373;49.342;8.146;2023-12-14T10:47:58;8.77;;;6.20;;
823;SDS011;373;49.342;8.146;2023-12-14T10:50:26;6.57;;;5.50;;
823;SDS011;373;49.342;8.146;2023-12-14T10:52:55;6.35;;;5.00;;
823;SDS011;373;49.342;8.146;2023-12-14T10:55:24;8.23;;;6.00;;
823;SDS011;373;49.342;8.146;2023-12-14T10:57:58;6.03;;;5.20;;
823;SDS011;373;49.342;8.146;2023-12-14T11:00:26;4.90;;;4.40;;
823;SDS011;373;49.342;8.146;2023-12-14T11:02:54;4.85;;;4.35;;
823;SDS011;373;49.342;8.146;2023-12-14T11:05:22;4.80;;;4.40;;
823;SDS011;373;49.342;8.146;2023-12-14T11:07:54;6.97;;;5.35;;
823;SDS011;373;49.342;8.146;2023-12-14T11:10:27;4.97;;;4.47;;
823;SDS011;373;49.342;8.146;2023-12-14T11:13:04;6.93;;;4.93;;
823;SDS011;373;49.342;8.146;2023-12-14T11:15:35;5.55;;;4.15;;
823;SDS011;373;49.342;8.146;2023-12-14T11:18:24;6.47;;;5.45;;
823;SDS011;373;49.342;8.146;2023-12-14T11:20:56;5.80;;;4.97;;
823;SDS011;373;49.342;8.146;2023-12-14T11:23:32;4.75;;;4.35;;
823;SDS011;373;49.342;8.146;2023-12-14T11:26:02;5.10;;;4.45;;
823;SDS011;373;49.342;8.146;2023-12-14T11:28:32;5.55;;;4.93;;
823;SDS011;373;49.342;8.146;2023-12-14T11:31:01;5.57;;;4.40;;
823;SDS011;373;49.342;8.146;2023-12-14T11:33:32;5.10;;;4.60;;
823;SDS011;373;49.342;8.146;2023-12-14T11:35:59;5.18;;;4.22;;
823;SDS011;373;49.342;8.146;2023-12-14T11:38:28;5.18;;;4.55;;
823;SDS011;373;49.342;8.146;2023-12-14T11:40:57;4.32;;;3.92;;
823;SDS011;373;49.342;8.146;2023-12-14T11:43:25;5.55;;;5.03;;
823;SDS011;373;49.342;8.146;2023-12-14T11:45:53;5.47;;;4.97;;
823;SDS011;373;49.342;8.146;2023-12-14T11:48:21;5.13;;;4.35;;
823;SDS011;373;49.342;8.146;2023-12-14T11:50:48;4.82;;;4.43;;
823;SDS011;373;49.342;8.146;2023-12-14T11:53:15;4.95;;;4.07;;
823;SDS011;373;49.342;8.146;2023-12-14T11:55:42;5.82;;;4.30;;
823;SDS011;373;49.342;8.146;2023-12-14T11:58:11;4.20;;;3.80;;
823;SDS011;373;49.342;8.146;2023-12-14T12:00:40;4.95;;;4.45;;
823;SDS011;373;49.342;8.146;2023-12-14T12:03:09;4.72;;;4.30;;
823;SDS011;373;49.342;8.146;2023-12-14T12:05:37;4.13;;;3.72;;
823;SDS011;373;49.342;8.146;2023-12-14T12:08:05;4.05;;;3.40;;
823;SDS011;373;49.342;8.146;2023-12-14T12:10:33;4.53;;;3.17;;
823;SDS011;373;49.342;8.146;2023-12-14T12:13:01;4.43;;;3.30;;
823;SDS011;373;49.342;8.146;2023-12-14T12:15:30;3.88;;;3.08;;
823;SDS011;373;49.342;8.146;2023-12-14T12:18:01;3.50;;;2.95;;
823;SDS011;373;49.342;8.146;2023-12-14T12:20:31;4.32;;;3.10;;
823;SDS011;373;49.342;8.146;2023-12-14T12:22:58;2.97;;;2.78;;
823;SDS011;373;49.342;8.146;2023-12-14T12:25:27;3.25;;;2.78;;
823;SDS011;373;49.342;8.146;2023-12-14T12:27:54;3.17;;;2.80;;
823;SDS011;373;49.342;8.146;2023-12-14T12:30:21;2.97;;;2.50;;
823;SDS011;373;49.342;8.146;2023-12-14T12:32:49;2.83;;;2.10;;
823;SDS011;373;49.342;8.146;2023-12-14T12:35:17;2.67;;;2.47;;
823;SDS011;373;49.342;8.146;2023-12-14T12:37:45;2.55;;;2.22;;
823;SDS011;373;49.342;8.146;2023-12-14T12:40:18;3.30;;;2.47;;
823;SDS011;373;49.342;8.146;2023-12-14T12:42:45;3.50;;;2.40;;
823;SDS011;373;49.342;8.146;2023-12-14T12:45:14;4.72;;;2.92;;
823;SDS011;373;49.342;8.146;2023-12-14T12:47:43;2.30;;;2.10;;
823;SDS011;373;49.342;8.146;2023-12-14T12:50:10;2.53;;;2.28;;
823;SDS011;373;49.342;8.146;2023-12-14T12:52:37;2.90;;;2.08;;
823;SDS011;373;49.342;8.146;2023-12-14T12:55:07;2.30;;;2.08;;
823;SDS011;373;49.342;8.146;2023-12-14T12:57:35;2.13;;;1.92;;
823;SDS011;373;49.342;8.146;2023-12-14T13:00:03;2.13;;;1.92;;
823;SDS011;373;49.342;8.146;2023-12-14T13:02:33;2.70;;;2.10;;
823;SDS011;373;49.342;8.146;2023-12-14T13:05:00;1.90;;;1.77;;
823;SDS011;373;49.342;8.146;2023-12-14T13:07:27;2.35;;;2.00;;
823;SDS011;373;49.342;8.146;2023-12-14T13:09:54;2.63;;;2.42;;
823;SDS011;373;49.342;8.146;2023-12-14T13:12:23;2.75;;;1.98;;
823;SDS011;373;49.342;8.146;2023-12-14T13:14:50;2.70;;;1.85;;
823;SDS011;373;49.342;8.146;2023-12-14T13:17:17;1.55;;;1.42;;
823;SDS011;373;49.342;8.146;2023-12-14T13:19:44;1.50;;;1.40;;
823;SDS011;373;49.342;8.146;2023-12-14T13:22:10;1.75;;;1.65;;
823;SDS011;373;49.342;8.146;2023-12-14T13:24:38;2.20;;;1.85;;
823;SDS011;373;49.342;8.146;2023-12-14T13:27:06;1.52;;;1.42;;
823;SDS011;373;49.342;8.146;2023-12-14T13:29:34;1.70;;;1.60;;
823;SDS011;373;49.342;8.146;2023-12-14T13:32:01;1.58;;;1.48;;
823;SDS011;373;49.342;8.146;2023-12-14T13:34:28;1.38;;;1.27;;
823;SDS011;373;49.342;8.146;2023-12-14T13:36:55;1.80;;;1.70;;
823;SDS011;373;49.342;8.146;2023-12-14T13:39:25;1.63;;;1.52;;
823;SDS011;373;49.342;8.146;2023-12-14T13:41:52;1.88;;;1.67;;
823;SDS011;373;49.342;8.146;2023-12-14T13:44:19;2.67;;;1.77;;
823;SDS011;373;49.342;8.146;2023-12-14T13:46:48;2.25;;;1.75;;
823;SDS011;373;49.342;8.146;2023-12-14T13:49:16;1.80;;;1.65;;
823;SDS011;373;49.342;8.146;2023-12-14T13:51:43;2.25;;;1.73;;
823;SDS011;373;49.342;8.146;2023-12-14T13:54:10;2.00;;;1.70;;
823;SDS011;373;49.342;8.146;2023-12-14T13:56:37;3.05;;;1.98;;
823;SDS011;373;49.342;8.146;2023-12-14T13:59:05;1.80;;;1.52;;
823;SDS011;373;49.342;8.146;2023-12-14T14:01:33;2.13;;;1.52;;
823;SDS011;373;49.342;8.146;2023-12-14T14:04:02;1.77;;;1.50;;
823;SDS011;373;49.342;8.146;2023-12-14T14:06:29;1.83;;;1.73;;
823;SDS011;373;49.342;8.146;2023-12-14T14:08:56;1.95;;;1.70;;
823;SDS011;373;49.342;8.146;2023-12-14T14:11:23;1.98;;;1.60;;
823;SDS011;373;49.342;8.146;2023-12-14T14:13:50;2.58;;;1.80;;
823;SDS011;373;49.342;8.146;2023-12-14T14:16:17;1.60;;;1.50;;
823;SDS011;373;49.342;8.146;2023-12-14T14:18:44;2.63;;;2.08;;
823;SDS011;373;49.342;8.146;2023-12-14T14:21:12;3.55;;;2.10;;
823;SDS011;373;49.342;8.146;2023-12-14T14:23:39;2.33;;;1.70;;
823;SDS011;373;49.342;8.146;2023-12-14T14:26:06;2.55;;;1.92;;
823;SDS011;373;49.342;8.146;2023-12-14T14:28:33;2.00;;;1.83;;
823;SDS011;373;49.342;8.146;2023-12-14T14:31:00;1.38;;;1.27;;
823;SDS011;373;49.342;8.146;2023-12-14T14:33:28;2.15;;;1.63;;
823;SDS011;373;49.342;8.146;2023-12-14T14:35:55;2.90;;;1.90;;
823;SDS011;373;49.342;8.146;2023-12-14T14:38:23;4.22;;;2.05;;
823;SDS011;373;49.342;8.146;2023-12-14T14:40:50;2.13;;;1.67;;
823;SDS011;373;49.342;8.146;2023-12-14T14:43:17;2.28;;;2.08;;
823;SDS011;373;49.342;8.146;2023-12-14T14:45:44;2.85;;;2.17;;
823;SDS011;373;49.342;8.146;2023-12-14T14:48:11;1.98;;;1.55;;
823;SDS011;373;49.342;8.146;2023-12-14T14:50:38;1.90;;;1.70;;
823;SDS011;373;49.342;8.146;2023-12-14T14:53:05;1.70;;;1.60;;
823;SDS011;373;49.342;8.146;2023-12-14T14:55:34;1.40;;;1.30;;
823;SDS011;373;49.342;8.146;2023-12-14T14:58:01;1.75;;;1.63;;
823;SDS011;373;49.342;8.146;2023-12-14T15:00:28;1.80;;;1.70;;
823;SDS011;373;49.342;8.146;2023-12-14T15:02:55;2.17;;;1.75;;
823;SDS011;373;49.342;8.146;2023-12-14T15:05:22;1.98;;;1.70;;
823;SDS011;373;49.342;8.146;2023-12-14T15:07:49;1.90;;;1.52;;
823;SDS011;373;49.342;8.146;2023-12-14T15:10:16;3.92;;;2.85;;
823;SDS011;373;49.342;8.146;2023-12-14T15:12:44;5.82;;;3.15;;
823;SDS011;373;49.342;8.146;2023-12-14T15:15:11;3.80;;;3.40;;
823;SDS011;373;49.342;8.146;2023-12-14T15:17:38;4.00;;;3.50;;
823;SDS011;373;49.342;8.146;2023-12-14T15:20:06;4.68;;;3.70;;
823;SDS011;373;49.342;8.146;2023-12-14T15:22:34;3.80;;;3.30;;
823;SDS011;373;49.342;8.146;2023-12-14T15:25:01;6.20;;;3.60;;
823;SDS011;373;49.342;8.146;2023-12-14T15:27:29;5.75;;;3.60;;
823;SDS011;373;49.342;8.146;2023-12-14T15:29:59;3.67;;;3.30;;
823;SDS011;373;49.342;8.146;2023-12-14T15:32:26;6.57;;;3.50;;
823;SDS011;373;49.342;8.146;2023-12-14T15:34:53;4.68;;;4.28;;
823;SDS011;373;49.342;8.146;2023-12-14T15:37:20;5.38;;;3.90;;
823;SDS011;373;49.342;8.146;2023-12-14T15:39:47;5.95;;;4.32;;
823;SDS011;373;49.342;8.146;2023-12-14T15:42:15;5.22;;;4.38;;
823;SDS011;373;49.342;8.146;2023-12-14T15:44:42;4.32;;;3.90;;
823;SDS011;373;49.342;8.146;2023-12-14T15:47:11;3.50;;;2.70;;
823;SDS011;373;49.342;8.146;2023-12-14T15:49:38;1.50;;;1.40;;
823;SDS011;373;49.342;8.146;2023-12-14T15:52:07;1.70;;;1.60;;
823;SDS011;373;49.342;8.146;2023-12-14T15:54:34;0.63;;;0.63;;
823;SDS011;373;49.342;8.146;2023-12-14T15:57:01;1.40;;;0.70;;
823;SDS011;373;49.342;8.146;2023-12-14T15:59:29;1.00;;;0.73;;
823;SDS011;373;49.342;8.146;2023-12-14T16:01:57;0.70;;;0.68;;
823;SDS011;373;49.342;8.146;2023-12-14T16:04:26;1.98;;;0.90;;
823;SDS011;373;49.342;8.146;2023-12-14T16:06:53;2.20;;;1.33;;
823;SDS011;373;49.342;8.146;2023-12-14T16:09:20;2.92;;;1.38;;
823;SDS011;373;49.342;8.146;2023-12-14T16:11:47;3.05;;;2.03;;
823;SDS011;373;49.342;8.146;2023-12-14T16:14:14;2.53;;;2.10;;
823;SDS011;373;49.342;8.146;2023-12-14T16:16:41;1.52;;;1.27;;
823;SDS011;373;49.342;8.146;2023-12-14T16:19:08;1.30;;;1.20;;
823;SDS011;373;49.342;8.146;2023-12-14T16:21:37;1.50;;;1.35;;
823;SDS011;373;49.342;8.146;2023-12-14T16:24:04;1.55;;;1.45;;
823;SDS011;373;49.342;8.146;2023-12-14T16:26:31;1.45;;;1.20;;
823;SDS011;373;49.342;8.146;2023-12-14T16:29:03;1.35;;;1.10;;
823;SDS011;373;49.342;8.146;2023-12-14T16:31:31;2.88;;;1.35;;
823;SDS011;373;49.342;8.146;2023-12-14T16:33:58;2.10;;;1.52;;
823;SDS011;373;49.342;8.146;2023-12-14T16:36:25;2.13;;;1.65;;
823;SDS011;373;49.342;8.146;2023-12-14T16:38:54;2.22;;;1.42;;
823;SDS011;373;49.342;8.146;2023-12-14T16:41:21;1.83;;;1.67;;
823;SDS011;373;49.342;8.146;2023-12-14T16:43:48;2.00;;;1.83;;
823;SDS011;373;49.342;8.146;2023-12-14T16:46:16;1.50;;;1.40;;
823;SDS011;373;49.342;8.146;2023-12-14T16:48:43;1.98;;;1.30;;
823;SDS011;373;49.342;8.146;2023-12-14T16:51:12;1.35;;;1.02;;
823;SDS011;373;49.342;8.146;2023-12-14T16:53:39;1.23;;;0.90;;
823;SDS011;373;49.342;8.146;2023-12-14T16:56:09;1.00;;;0.95;;